Time,TemperatureF,DewpointF,PressureIn,WindDirection,WindDirectionDegrees,WindSpeedMPH,WindSpeedGustMPH,Humidity,HourlyPrecipIn,Conditions,Clouds,dailyrainin,SoftwareType,DateUTC
2013-08-23 00:07:00,72.2,70.0,30.05,WNW,288,0.0,1.0,91,0.00,,,0.00,weatherlink.com 1.10,2013-08-23 04:07:00,
2013-08-23 00:22:00,71.9,70.0,30.05,WNW,288,0.0,0.0,92,0.00,,,0.00,weatherlink.com 1.10,2013-08-23 04:22:00,
2013-08-23 00:37:00,72.3,70.0,30.05,NNW,330,0.0,2.0,92,0.00,,,0.00,weatherlink.com 1.10,2013-08-23 04:37:00,
2013-08-23 00:52:00,72.2,70.0,30.05,NNW,330,0.0,0.0,92,0.00,,,0.00,weatherlink.com 1.10,2013-08-23 04:52:00,
2013-08-23 01:07:00,72.1,70.0,30.05,NNW,330,0.0,1.0,92,0.00,,,0.00,weatherlink.com 1.10,2013-08-23 05:07:00,
2013-08-23 01:22:00,72.0,70.0,30.05,NNW,329,1.0,1.0,93,0.00,,,0.00,weatherlink.com 1.10,2013-08-23 05:22:00,
2013-08-23 01:37:00,71.7,70.0,30.04,NW,325,0.0,1.0,93,0.00,,,0.00,weatherlink.com 1.10,2013-08-23 05:37:00,
2013-08-23 01:52:00,71.2,69.0,30.04,NW,323,0.0,0.0,93,0.00,,,0.00,weatherlink.com 1.10,2013-08-23 05:52:00,
2013-08-23 02:07:00,70.9,69.0,30.05,NW,323,0.0,0.0,93,0.00,,,0.00,weatherlink.com 1.10,2013-08-23 06:07:00,
2013-08-23 02:22:00,70.7,69.0,30.05,WNW,303,0.0,1.0,93,0.00,,,0.00,weatherlink.com 1.10,2013-08-23 06:22:00,
2013-08-23 02:37:00,70.5,68.0,30.05,NW,304,0.0,0.0,93,0.00,,,0.00,weatherlink.com 1.10,2013-08-23 06:37:00,
2013-08-23 02:52:00,70.1,68.0,30.05,WNW,303,0.0,0.0,94,0.00,,,0.00,weatherlink.com 1.10,2013-08-23 06:52:00,
2013-08-23 03:07:00,69.9,68.0,30.05,WNW,303,0.0,0.0,94,0.00,,,0.00,weatherlink.com 1.10,2013-08-23 07:07:00,
2013-08-23 03:22:00,70.0,69.0,30.04,WNW,303,0.0,0.0,95,0.00,,,0.00,weatherlink.com 1.10,2013-08-23 07:22:00,
2013-08-23 03:37:00,69.7,68.0,30.04,NW,304,0.0,0.0,95,0.00,,,0.00,weatherlink.com 1.10,2013-08-23 07:37:00,
2013-08-23 03:52:00,69.6,69.0,30.05,WNW,303,0.0,0.0,96,0.00,,,0.00,weatherlink.com 1.10,2013-08-23 07:52:00,
2013-08-23 04:07:00,69.6,69.0,30.05,WNW,303,0.0,0.0,96,0.00,,,0.00,weatherlink.com 1.10,2013-08-23 08:07:00,
2013-08-23 04:22:00,69.6,69.0,30.04,WNW,303,0.0,0.0,96,0.00,,,0.00,weatherlink.com 1.10,2013-08-23 08:22:00,
2013-08-23 04:37:00,69.7,69.0,30.05,NW,304,0.0,1.0,96,0.01,,,0.01,weatherlink.com 1.10,2013-08-23 08:37:00,
2013-08-23 04:52:00,69.5,68.0,30.05,NW,305,0.0,0.0,96,0.01,,,0.01,weatherlink.com 1.10,2013-08-23 08:52:00,
2013-08-23 05:07:00,69.4,68.0,30.05,NW,304,0.0,0.0,96,0.01,,,0.01,weatherlink.com 1.10,2013-08-23 09:07:00,
2013-08-23 05:22:00,69.4,69.0,30.05,NW,304,0.0,0.0,97,0.01,,,0.01,weatherlink.com 1.10,2013-08-23 09:22:00,
2013-08-23 05:37:00,69.4,69.0,30.06,WNW,293,0.0,1.0,97,0.00,,,0.01,weatherlink.com 1.10,2013-08-23 09:37:00,
2013-08-23 05:52:00,69.0,68.0,30.06,WNW,293,0.0,0.0,97,0.00,,,0.01,weatherlink.com 1.10,2013-08-23 09:52:00,
2013-08-23 06:07:00,69.0,68.0,30.06,WNW,293,0.0,0.0,97,0.00,,,0.01,weatherlink.com 1.10,2013-08-23 10:07:00,
2013-08-23 06:22:00,68.9,68.0,30.06,WNW,293,0.0,0.0,97,0.00,,,0.01,weatherlink.com 1.10,2013-08-23 10:22:00,
2013-08-23 06:37:00,68.9,68.0,30.07,WNW,295,0.0,1.0,97,0.00,,,0.01,weatherlink.com 1.10,2013-08-23 10:37:00,
2013-08-23 06:52:00,68.5,68.0,30.08,WNW,295,0.0,1.0,97,0.00,,,0.01,weatherlink.com 1.10,2013-08-23 10:52:00,
2013-08-23 07:07:00,68.4,67.0,30.08,NNW,327,0.0,2.0,96,0.00,,,0.01,weatherlink.com 1.10,2013-08-23 11:07:00,
2013-08-23 07:22:00,68.6,67.0,30.08,NW,325,0.0,3.0,94,0.00,,,0.01,weatherlink.com 1.10,2013-08-23 11:22:00,
2013-08-23 07:38:00,68.7,67.0,30.08,NNW,328,0.0,2.0,93,0.00,,,0.01,weatherlink.com 1.10,2013-08-23 11:38:00,
2013-08-23 07:53:00,69.0,67.0,30.09,NW,325,0.0,3.0,92,0.00,,,0.01,weatherlink.com 1.10,2013-08-23 11:53:00,
2013-08-23 08:08:00,69.0,66.0,30.09,NW,317,1.0,4.0,91,0.00,,,0.01,weatherlink.com 1.10,2013-08-23 12:08:00,
2013-08-23 08:23:00,70.1,67.0,30.10,NNW,327,0.0,4.0,89,0.00,,,0.01,weatherlink.com 1.10,2013-08-23 12:23:00,
2013-08-23 08:38:00,71.4,67.0,30.10,NNW,337,0.0,4.0,86,0.00,,,0.01,weatherlink.com 1.10,2013-08-23 12:38:00,
2013-08-23 08:53:00,72.6,67.0,30.10,NW,324,0.0,2.0,81,0.00,,,0.01,weatherlink.com 1.10,2013-08-23 12:53:00,
2013-08-23 09:08:00,72.9,66.0,30.10,NW,316,0.0,4.0,79,0.00,,,0.01,weatherlink.com 1.10,2013-08-23 13:08:00,
2013-08-23 09:23:00,73.1,66.0,30.10,WNW,293,0.0,3.0,77,0.00,,,0.01,weatherlink.com 1.10,2013-08-23 13:23:00,
2013-08-23 09:38:00,73.5,64.0,30.11,NNW,337,3.0,8.0,73,0.00,,,0.01,weatherlink.com 1.10,2013-08-23 13:38:00,
2013-08-23 09:53:00,73.9,64.0,30.11,NNE,16,2.0,7.0,72,0.00,,,0.01,weatherlink.com 1.10,2013-08-23 13:53:00,
2013-08-23 10:08:00,75.3,65.0,30.12,NNW,333,3.0,5.0,71,0.00,,,0.01,weatherlink.com 1.10,2013-08-23 14:08:00,
2013-08-23 10:23:00,75.8,65.0,30.12,North,352,0.0,6.0,69,0.00,,,0.01,weatherlink.com 1.10,2013-08-23 14:23:00,
2013-08-23 10:38:00,76.3,65.0,30.12,NW,306,0.0,5.0,69,0.00,,,0.01,weatherlink.com 1.10,2013-08-23 14:38:00,
2013-08-23 10:53:00,77.1,65.0,30.12,North,5,5.0,5.0,66,0.00,,,0.01,weatherlink.com 1.10,2013-08-23 14:53:00,
2013-08-23 11:08:00,77.9,64.0,30.12,North,351,2.0,6.0,63,0.00,,,0.01,weatherlink.com 1.10,2013-08-23 15:08:00,
2013-08-23 11:23:00,77.7,65.0,30.12,NW,309,1.0,6.0,66,0.00,,,0.01,weatherlink.com 1.10,2013-08-23 15:23:00,
2013-08-23 11:38:00,76.8,66.0,30.12,NNW,328,0.0,6.0,69,0.00,,,0.01,weatherlink.com 1.10,2013-08-23 15:38:00,
2013-08-23 11:53:00,77.8,63.0,30.13,NNW,332,0.0,7.0,61,0.00,,,0.01,weatherlink.com 1.10,2013-08-23 15:53:00,
2013-08-23 12:08:00,78.4,64.0,30.13,WNW,283,1.0,6.0,62,0.00,,,0.01,weatherlink.com 1.10,2013-08-23 16:08:00,
2013-08-23 12:23:00,78.8,61.0,30.13,NNE,25,3.0,9.0,55,0.00,,,0.01,weatherlink.com 1.10,2013-08-23 16:23:00,
2013-08-23 12:38:00,78.8,61.0,30.13,NNE,13,5.0,8.0,54,0.00,,,0.01,weatherlink.com 1.10,2013-08-23 16:38:00,
2013-08-23 12:53:00,79.5,60.0,30.13,North,6,4.0,8.0,51,0.00,,,0.01,weatherlink.com 1.10,2013-08-23 16:53:00,
2013-08-23 13:08:00,78.8,58.0,30.13,North,351,4.0,11.0,49,0.00,,,0.01,weatherlink.com 1.10,2013-08-23 17:08:00,
2013-08-23 13:23:00,79.2,58.0,30.13,North,10,3.0,10.0,48,0.00,,,0.01,weatherlink.com 1.10,2013-08-23 17:23:00,
2013-08-23 13:38:00,78.9,57.0,30.13,NW,306,3.0,10.0,48,0.00,,,0.01,weatherlink.com 1.10,2013-08-23 17:38:00,
2013-08-23 13:53:00,79.0,56.0,30.13,NNE,18,3.0,12.0,46,0.00,,,0.01,weatherlink.com 1.10,2013-08-23 17:53:00,
2013-08-23 14:08:00,79.2,55.0,30.13,NW,317,3.0,9.0,44,0.00,,,0.01,weatherlink.com 1.10,2013-08-23 18:08:00,
2013-08-23 14:23:00,79.0,57.0,30.13,NNE,22,2.0,8.0,47,0.00,,,0.01,weatherlink.com 1.10,2013-08-23 18:23:00,
2013-08-23 14:38:00,78.9,55.0,30.13,NNW,347,6.0,10.0,44,0.00,,,0.01,weatherlink.com 1.10,2013-08-23 18:38:00,
2013-08-23 14:53:00,79.2,57.0,30.13,West,266,2.0,9.0,47,0.00,,,0.01,weatherlink.com 1.10,2013-08-23 18:53:00,
2013-08-23 15:09:00,79.0,55.0,30.13,North,2,1.0,10.0,43,0.00,,,0.01,weatherlink.com 1.10,2013-08-23 19:09:00,
2013-08-23 15:24:00,78.8,54.0,30.13,North,6,6.0,10.0,42,0.00,,,0.01,weatherlink.com 1.10,2013-08-23 19:24:00,
2013-08-23 15:39:00,78.4,53.0,30.13,NNE,27,8.0,13.0,41,0.00,,,0.01,weatherlink.com 1.10,2013-08-23 19:39:00,
2013-08-23 15:54:00,77.7,54.0,30.13,North,356,3.0,11.0,44,0.00,,,0.01,weatherlink.com 1.10,2013-08-23 19:54:00,
2013-08-23 16:09:00,78.8,52.0,30.13,NW,320,5.0,8.0,40,0.00,,,0.01,weatherlink.com 1.10,2013-08-23 20:09:00,
2013-08-23 16:24:00,77.9,54.0,30.13,NNE,16,5.0,10.0,43,0.00,,,0.01,weatherlink.com 1.10,2013-08-23 20:24:00,
2013-08-23 16:39:00,77.8,53.0,30.13,NNW,330,1.0,10.0,42,0.00,,,0.01,weatherlink.com 1.10,2013-08-23 20:39:00,
2013-08-23 16:54:00,77.4,54.0,30.13,NNW,337,5.0,11.0,44,0.00,,,0.01,weatherlink.com 1.10,2013-08-23 20:54:00,
2013-08-23 17:09:00,77.0,55.0,30.13,NW,314,1.0,7.0,46,0.00,,,0.01,weatherlink.com 1.10,2013-08-23 21:09:00,
2013-08-23 17:24:00,76.5,54.0,30.13,NNW,348,2.0,8.0,46,0.00,,,0.01,weatherlink.com 1.10,2013-08-23 21:24:00,
2013-08-23 17:39:00,76.1,54.0,30.13,North,359,4.0,8.0,46,0.00,,,0.01,weatherlink.com 1.10,2013-08-23 21:39:00,
2013-08-23 17:54:00,75.7,57.0,30.13,NNW,340,2.0,10.0,52,0.00,,,0.01,weatherlink.com 1.10,2013-08-23 21:54:00,
2013-08-23 18:09:00,74.9,58.0,30.13,WNW,297,2.0,9.0,55,0.00,,,0.01,weatherlink.com 1.10,2013-08-23 22:09:00,
2013-08-23 18:24:00,74.7,58.0,30.13,NW,324,4.0,8.0,56,0.00,,,0.01,weatherlink.com 1.10,2013-08-23 22:24:00,
2013-08-23 18:39:00,74.7,58.0,30.13,NNW,327,3.0,6.0,56,0.00,,,0.01,weatherlink.com 1.10,2013-08-23 22:39:00,
2013-08-23 18:54:00,74.4,57.0,30.13,NW,317,0.0,8.0,55,0.00,,,0.01,weatherlink.com 1.10,2013-08-23 22:54:00,
2013-08-23 19:09:00,74.7,51.0,30.13,NW,314,1.0,5.0,44,0.00,,,0.01,weatherlink.com 1.10,2013-08-23 23:09:00,
2013-08-23 19:24:00,74.9,51.0,30.13,NNW,328,1.0,5.0,43,0.00,,,0.01,weatherlink.com 1.10,2013-08-23 23:24:00,
2013-08-23 19:39:00,74.6,48.0,30.14,North,360,3.0,5.0,39,0.00,,,0.01,weatherlink.com 1.10,2013-08-23 23:39:00,
2013-08-23 19:54:00,72.8,49.0,30.14,NNW,327,0.0,3.0,43,0.00,,,0.01,weatherlink.com 1.10,2013-08-23 23:54:00,
2013-08-23 20:09:00,71.1,49.0,30.15,NNW,327,0.0,1.0,46,0.00,,,0.01,weatherlink.com 1.10,2013-08-24 00:09:00,
2013-08-23 20:24:00,69.4,49.0,30.15,NNW,327,0.0,0.0,49,0.00,,,0.01,weatherlink.com 1.10,2013-08-24 00:24:00,
2013-08-23 20:39:00,68.0,50.0,30.15,NNW,327,0.0,0.0,52,0.00,,,0.01,weatherlink.com 1.10,2013-08-24 00:39:00,
2013-08-23 20:54:00,65.5,50.0,30.16,NNW,327,0.0,0.0,57,0.00,,,0.01,weatherlink.com 1.10,2013-08-24 00:54:00,
2013-08-23 21:09:00,63.8,50.0,30.17,NNW,327,0.0,0.0,61,0.00,,,0.01,weatherlink.com 1.10,2013-08-24 01:09:00,
2013-08-23 21:24:00,63.3,50.0,30.17,NNW,327,0.0,0.0,63,0.00,,,0.01,weatherlink.com 1.10,2013-08-24 01:24:00,
2013-08-23 21:39:00,61.9,50.0,30.18,NNW,327,0.0,0.0,66,0.00,,,0.01,weatherlink.com 1.10,2013-08-24 01:39:00,
2013-08-23 21:54:00,61.3,51.0,30.18,NNW,327,0.0,0.0,69,0.00,,,0.01,weatherlink.com 1.10,2013-08-24 01:54:00,
2013-08-23 22:09:00,61.5,52.0,30.18,NNW,327,0.0,0.0,71,0.00,,,0.01,weatherlink.com 1.10,2013-08-24 02:09:00,
2013-08-23 22:24:00,61.5,52.0,30.19,NNW,327,0.0,0.0,72,0.00,,,0.01,weatherlink.com 1.10,2013-08-24 02:24:00,
2013-08-23 22:39:00,62.1,53.0,30.19,NW,317,0.0,0.0,71,0.00,,,0.01,weatherlink.com 1.10,2013-08-24 02:39:00,
2013-08-23 22:54:00,61.2,52.0,30.19,NW,317,0.0,0.0,73,0.00,,,0.01,weatherlink.com 1.10,2013-08-24 02:54:00,
2013-08-23 23:09:00,60.0,52.0,30.20,NW,317,0.0,0.0,75,0.00,,,0.01,weatherlink.com 1.10,2013-08-24 03:09:00,
2013-08-23 23:24:00,59.2,52.0,30.20,NW,317,0.0,0.0,77,0.00,,,0.01,weatherlink.com 1.10,2013-08-24 03:24:00,
2013-08-23 23:39:00,58.4,52.0,30.21,NW,317,0.0,0.0,80,0.00,,,0.01,weatherlink.com 1.10,2013-08-24 03:39:00,
2013-08-23 23:54:00,58.6,53.0,30.21,NW,317,0.0,0.0,81,0.00,,,0.01,weatherlink.com 1.10,2013-08-24 03:54:00,